EDT,Max TemperatureF,Mean TemperatureF,Min TemperatureF,Max Dew PointF,MeanDew PointF,Min DewpointF,Max Humidity, Mean Humidity, Min Humidity, Max Sea Level PressureIn, Mean Sea Level PressureIn, Min Sea Level PressureIn, Max VisibilityMiles, Mean VisibilityMiles, Min VisibilityMiles, Max Wind SpeedMPH, Mean Wind SpeedMPH, Max Gust SpeedMPH,PrecipitationIn, CloudCover, Events, WindDirDegrees
2012-10-1,63,50,36,50,44,34,93,79,55,29.96,29.90,29.84,10,10,4,14,2,18,0.00,0,,219
2012-10-2,62,54,45,52,48,44,93,81,63,29.98,29.92,29.86,10,9,0,8,2,,0.00,4,Fog,23
2012-10-3,68,56,43,56,50,42,93,80,50,30.01,29.99,29.96,10,9,0,8,3,,0.00,2,Fog,95
2012-10-4,69,62,55,58,55,40,93,79,55,29.99,29.91,29.82,10,8,0,23,4,33,0.00,5,Fog-Rain,194
2012-10-5,55,50,44,40,34,28,64,57,49,29.93,29.90,29.85,10,10,10,22,18,32,0.00,7,,252
2012-10-6,45,42,40,37,33,30,82,68,57,30.10,29.95,29.82,10,10,5,20,13,29,0.00,7,Rain,301
2012-10-7,50,42,34,34,29,24,90,58,37,30.10,30.05,29.99,10,10,10,15,6,22,0.00,6,,256
2012-10-8,58,52,46,38,30,23,54,42,35,30.00,29.95,29.86,10,10,10,22,13,36,0.00,5,,207
2012-10-9,55,50,44,48,44,36,89,78,55,29.85,29.76,29.67,10,9,5,23,14,36,0.00,8,Rain,219
2012-10-10,45,42,39,36,31,22,84,65,46,30.03,29.85,29.72,10,10,4,20,12,28,0.00,7,Rain,278
2012-10-11,46,42,39,41,34,25,87,67,48,30.19,29.97,29.83,10,10,4,24,13,39,0.00,7,Rain,262
2012-10-12,49,38,27,33,29,25,92,62,42,30.43,30.35,30.19,10,10,10,14,7,22,0.00,2,,260
2012-10-13,54,49,44,52,40,30,92,76,55,30.29,30.01,29.75,10,8,2,13,6,24,0.00,6,Rain,178
2012-10-14,51,48,45,50,46,42,92,90,87,29.78,29.57,29.37,10,7,2,17,7,28,0.00,8,Rain,24
2012-10-15,46,44,36,42,36,30,87,74,63,29.93,29.74,29.46,10,10,7,22,13,32,0.00,8,Rain,322
2012-10-16,54,42,31,47,39,30,95,82,63,29.93,29.79,29.61,10,10,7,12,3,16,0.00,4,Rain,156
2012-10-17,69,60,52,54,49,43,81,67,50,29.60,29.48,29.41,10,10,10,13,8,22,0.00,4,Rain,141
2012-10-18,60,54,48,54,49,40,89,80,69,29.57,29.37,29.25,10,10,4,15,11,24,0.00,7,Rain,148
2012-10-19,52,48,45,46,41,38,85,74,66,29.62,29.59,29.56,10,10,7,16,9,22,0.00,6,Rain,106
2012-10-20,58,50,43,48,45,40,92,82,62,29.83,29.70,29.59,10,10,2,9,4,,0.00,4,Rain,302
2012-10-21,58,48,37,49,43,35,93,80,57,30.02,29.96,29.84,10,7,0,14,3,18,0.00,1,Fog,232
2012-10-22,61,52,42,51,46,40,93,79,61,30.04,30.01,29.99,10,8,0,12,2,17,0.00,5,Fog,63
2012-10-23,60,56,52,50,49,48,87,80,66,30.01,29.99,29.97,10,10,4,20,12,28,0.00,8,Rain,84
2012-10-24,64,58,52,59,53,49,91,87,82,30.00,29.93,29.82,10,9,2,16,10,21,0.00,8,Rain,107
2012-10-25,73,60,46,60,57,42,88,73,56,29.82,29.68,29.56,10,10,4,23,11,39,0.00,4,Rain,183
2012-10-26,47,44,41,41,31,27,87,62,53,30.28,30.14,29.80,10,10,7,17,12,26,0.00,6,Rain,269
2012-10-27,43,36,28,29,25,21,84,59,45,30.32,30.29,30.26,10,10,10,9,4,,0.00,7,,316
2012-10-28,46,40,34,30,25,21,68,52,42,30.35,30.33,30.30,10,10,10,13,6,18,0.00,2,,4
2012-10-29,45,41,37,31,26,21,72,55,38,30.32,30.26,30.09,10,10,10,20,9,33,0.00,0,,2
2012-10-30,41,39,37,28,25,21,70,59,45,30.08,29.98,29.89,10,10,10,22,17,37,0.00,3,,1
2012-10-31,41,38,35,36,33,32,87,78,70,29.72,29.69,29.67,10,10,7,20,14,30,0.00,8,Rain,339